sensor_id;sensor_type;location;lat;lon;timestamp;P1;durP1;ratioP1;P2;durP2;ratioP2
20298;SDS011;10308;42.688;23.256;2024-03-02T00:01:40;16.73;;;14.93;;
20298;SDS011;10308;42.688;23.256;2024-03-02T00:04:08;16.27;;;14.48;;
20298;SDS011;10308;42.688;23.256;2024-03-02T00:06:35;16.08;;;14.38;;
20298;SDS011;10308;42.688;23.256;2024-03-02T00:09:02;17.38;;;15.48;;
20298;SDS011;10308;42.688;23.256;2024-03-02T00:11:29;15.60;;;14.00;;
20298;SDS011;10308;42.688;23.256;2024-03-02T00:13:56;14.85;;;13.40;;
20298;SDS011;10308;42.688;23.256;2024-03-02T00:16:23;14.90;;;13.30;;
20298;SDS011;10308;42.688;23.256;2024-03-02T00:18:53;16.52;;;14.82;;
20298;SDS011;10308;42.688;23.256;2024-03-02T00:21:20;15.65;;;14.15;;
20298;SDS011;10308;42.688;23.256;2024-03-02T00:23:48;16.98;;;15.27;;
20298;SDS011;10308;42.688;23.256;2024-03-02T00:26:17;17.50;;;15.80;;
20298;SDS011;10308;42.688;23.256;2024-03-02T00:28:44;16.08;;;14.48;;
20298;SDS011;10308;42.688;23.256;2024-03-02T00:31:13;16.98;;;15.27;;
20298;SDS011;10308;42.688;23.256;2024-03-02T00:33:41;16.70;;;15.10;;
20298;SDS011;10308;42.688;23.256;2024-03-02T00:36:12;15.75;;;14.15;;
20298;SDS011;10308;42.688;23.256;2024-03-02T00:38:44;16.17;;;14.57;;
20298;SDS011;10308;42.688;23.256;2024-03-02T00:41:15;16.88;;;15.25;;
20298;SDS011;10308;42.688;23.256;2024-03-02T00:43:44;16.20;;;14.60;;
20298;SDS011;10308;42.688;23.256;2024-03-02T00:46:17;16.98;;;15.27;;
20298;SDS011;10308;42.688;23.256;2024-03-02T00:48:51;16.75;;;14.95;;
20298;SDS011;10308;42.688;23.256;2024-03-02T00:51:22;17.95;;;16.15;;
20298;SDS011;10308;42.688;23.256;2024-03-02T00:53:50;16.67;;;14.90;;
20298;SDS011;10308;42.688;23.256;2024-03-02T00:56:17;16.55;;;14.85;;
20298;SDS011;10308;42.688;23.256;2024-03-02T00:58:45;16.10;;;14.40;;
20298;SDS011;10308;42.688;23.256;2024-03-02T01:01:12;16.85;;;15.15;;
20298;SDS011;10308;42.688;23.256;2024-03-02T01:03:39;16.77;;;15.07;;
20298;SDS011;10308;42.688;23.256;2024-03-02T01:06:07;17.02;;;14.93;;
20298;SDS011;10308;42.688;23.256;2024-03-02T01:08:37;17.15;;;15.30;;
20298;SDS011;10308;42.688;23.256;2024-03-02T01:11:04;16.33;;;14.70;;
20298;SDS011;10308;42.688;23.256;2024-03-02T01:13:31;16.55;;;14.85;;
20298;SDS011;10308;42.688;23.256;2024-03-02T01:15:58;17.05;;;15.35;;
20298;SDS011;10308;42.688;23.256;2024-03-02T01:18:26;16.48;;;14.68;;
20298;SDS011;10308;42.688;23.256;2024-03-02T01:20:53;16.77;;;15.10;;
20298;SDS011;10308;42.688;23.256;2024-03-02T01:23:21;17.05;;;15.23;;
20298;SDS011;10308;42.688;23.256;2024-03-02T01:25:49;16.48;;;14.73;;
20298;SDS011;10308;42.688;23.256;2024-03-02T01:28:16;17.42;;;15.63;;
20298;SDS011;10308;42.688;23.256;2024-03-02T01:30:43;17.35;;;15.55;;
20298;SDS011;10308;42.688;23.256;2024-03-02T01:33:11;17.02;;;15.32;;
20298;SDS011;10308;42.688;23.256;2024-03-02T01:35:37;17.70;;;15.90;;
20298;SDS011;10308;42.688;23.256;2024-03-02T01:38:05;16.27;;;14.57;;
20298;SDS011;10308;42.688;23.256;2024-03-02T01:40:33;18.23;;;16.33;;
20298;SDS011;10308;42.688;23.256;2024-03-02T01:43:05;17.48;;;15.63;;
20298;SDS011;10308;42.688;23.256;2024-03-02T01:45:33;16.92;;;15.13;;
20298;SDS011;10308;42.688;23.256;2024-03-02T01:48:00;16.27;;;14.60;;
20298;SDS011;10308;42.688;23.256;2024-03-02T01:50:28;17.33;;;15.55;;
20298;SDS011;10308;42.688;23.256;2024-03-02T01:52:56;17.70;;;14.43;;
20298;SDS011;10308;42.688;23.256;2024-03-02T01:55:23;18.77;;;16.17;;
20298;SDS011;10308;42.688;23.256;2024-03-02T01:57:50;18.17;;;16.27;;
20298;SDS011;10308;42.688;23.256;2024-03-02T02:00:21;17.40;;;15.55;;
20298;SDS011;10308;42.688;23.256;2024-03-02T02:02:49;17.20;;;14.52;;
20298;SDS011;10308;42.688;23.256;2024-03-02T02:05:17;16.98;;;15.27;;
20298;SDS011;10308;42.688;23.256;2024-03-02T02:07:44;17.50;;;15.38;;
20298;SDS011;10308;42.688;23.256;2024-03-02T02:10:11;18.70;;;16.80;;
20298;SDS011;10308;42.688;23.256;2024-03-02T02:12:38;21.85;;;18.92;;
20298;SDS011;10308;42.688;23.256;2024-03-02T02:18:00;22.35;;;19.95;;
20298;SDS011;10308;42.688;23.256;2024-03-02T02:20:28;22.73;;;20.40;;
20298;SDS011;10308;42.688;23.256;2024-03-02T02:22:57;23.17;;;19.92;;
20298;SDS011;10308;42.688;23.256;2024-03-02T02:25:25;23.20;;;20.80;;
20298;SDS011;10308;42.688;23.256;2024-03-02T02:27:53;23.55;;;21.05;;
20298;SDS011;10308;42.688;23.256;2024-03-02T02:30:21;22.83;;;20.27;;
20298;SDS011;10308;42.688;23.256;2024-03-02T02:32:50;22.98;;;20.58;;
20298;SDS011;10308;42.688;23.256;2024-03-02T02:35:17;22.48;;;20.17;;
20298;SDS011;10308;42.688;23.256;2024-03-02T02:37:45;22.40;;;20.00;;
20298;SDS011;10308;42.688;23.256;2024-03-02T02:40:15;23.45;;;21.10;;
20298;SDS011;10308;42.688;23.256;2024-03-02T02:42:44;23.15;;;20.85;;
20298;SDS011;10308;42.688;23.256;2024-03-02T02:45:12;23.05;;;20.75;;
20298;SDS011;10308;42.688;23.256;2024-03-02T02:47:40;23.40;;;20.95;;
20298;SDS011;10308;42.688;23.256;2024-03-02T02:50:07;23.92;;;21.38;;
20298;SDS011;10308;42.688;23.256;2024-03-02T02:52:35;23.63;;;21.08;;
20298;SDS011;10308;42.688;23.256;2024-03-02T02:55:05;23.08;;;20.73;;
20298;SDS011;10308;42.688;23.256;2024-03-02T02:57:35;22.88;;;20.48;;
20298;SDS011;10308;42.688;23.256;2024-03-02T03:00:04;22.75;;;20.42;;
20298;SDS011;10308;42.688;23.256;2024-03-02T03:02:35;23.17;;;20.77;;
20298;SDS011;10308;42.688;23.256;2024-03-02T03:05:03;22.30;;;20.00;;
20298;SDS011;10308;42.688;23.256;2024-03-02T03:07:32;22.10;;;19.95;;
20298;SDS011;10308;42.688;23.256;2024-03-02T03:09:59;23.05;;;20.65;;
20298;SDS011;10308;42.688;23.256;2024-03-02T03:12:26;23.45;;;20.98;;
20298;SDS011;10308;42.688;23.256;2024-03-02T03:14:54;23.60;;;20.67;;
20298;SDS011;10308;42.688;23.256;2024-03-02T03:17:22;22.50;;;20.30;;
20298;SDS011;10308;42.688;23.256;2024-03-02T03:19:52;23.75;;;21.23;;
20298;SDS011;10308;42.688;23.256;2024-03-02T03:22:19;22.45;;;20.10;;
20298;SDS011;10308;42.688;23.256;2024-03-02T03:24:46;23.45;;;21.15;;
20298;SDS011;10308;42.688;23.256;2024-03-02T03:27:14;23.17;;;20.73;;
20298;SDS011;10308;42.688;23.256;2024-03-02T03:29:41;22.95;;;20.55;;
20298;SDS011;10308;42.688;23.256;2024-03-02T03:32:11;23.90;;;21.42;;
20298;SDS011;10308;42.688;23.256;2024-03-02T03:34:38;23.90;;;21.40;;
20298;SDS011;10308;42.688;23.256;2024-03-02T03:37:07;23.45;;;21.10;;
20298;SDS011;10308;42.688;23.256;2024-03-02T03:39:34;25.35;;;21.52;;
20298;SDS011;10308;42.688;23.256;2024-03-02T03:42:02;23.77;;;21.27;;
20298;SDS011;10308;42.688;23.256;2024-03-02T03:44:29;23.98;;;21.48;;
20298;SDS011;10308;42.688;23.256;2024-03-02T03:46:56;23.88;;;21.38;;
20298;SDS011;10308;42.688;23.256;2024-03-02T03:49:24;23.70;;;21.23;;
20298;SDS011;10308;42.688;23.256;2024-03-02T03:51:51;23.13;;;20.75;;
20298;SDS011;10308;42.688;23.256;2024-03-02T03:54:18;24.70;;;21.92;;
20298;SDS011;10308;42.688;23.256;2024-03-02T03:56:45;22.55;;;20.13;;
20298;SDS011;10308;42.688;23.256;2024-03-02T03:59:12;24.00;;;21.52;;
20298;SDS011;10308;42.688;23.256;2024-03-02T04:01:39;23.67;;;21.30;;
20298;SDS011;10308;42.688;23.256;2024-03-02T04:04:06;23.55;;;21.10;;
20298;SDS011;10308;42.688;23.256;2024-03-02T04:06:35;23.55;;;21.25;;
20298;SDS011;10308;42.688;23.256;2024-03-02T04:09:02;23.25;;;20.85;;
20298;SDS011;10308;42.688;23.256;2024-03-02T04:11:32;23.77;;;21.27;;
20298;SDS011;10308;42.688;23.256;2024-03-02T04:13:59;23.95;;;21.45;;
20298;SDS011;10308;42.688;23.256;2024-03-02T04:16:26;24.50;;;21.98;;
20298;SDS011;10308;42.688;23.256;2024-03-02T04:18:53;24.77;;;21.08;;
20298;SDS011;10308;42.688;23.256;2024-03-02T04:21:20;24.02;;;21.52;;
20298;SDS011;10308;42.688;23.256;2024-03-02T04:23:49;24.70;;;22.05;;
20298;SDS011;10308;42.688;23.256;2024-03-02T04:26:16;23.70;;;21.15;;
20298;SDS011;10308;42.688;23.256;2024-03-02T04:28:47;24.77;;;22.20;;
20298;SDS011;10308;42.688;23.256;2024-03-02T04:31:14;23.63;;;21.23;;
20298;SDS011;10308;42.688;23.256;2024-03-02T04:33:42;23.98;;;21.48;;
20298;SDS011;10308;42.688;23.256;2024-03-02T04:36:09;23.25;;;20.92;;
20298;SDS011;10308;42.688;23.256;2024-03-02T04:38:38;23.52;;;21.10;;
20298;SDS011;10308;42.688;23.256;2024-03-02T04:41:10;23.00;;;20.55;;
20298;SDS011;10308;42.688;23.256;2024-03-02T04:43:37;23.83;;;20.88;;
20298;SDS011;10308;42.688;23.256;2024-03-02T04:46:04;24.50;;;22.02;;
20298;SDS011;10308;42.688;23.256;2024-03-02T04:48:32;24.25;;;21.65;;
20298;SDS011;10308;42.688;23.256;2024-03-02T04:50:59;23.23;;;20.83;;
20298;SDS011;10308;42.688;23.256;2024-03-02T04:53:26;24.75;;;20.85;;
20298;SDS011;10308;42.688;23.256;2024-03-02T04:55:53;23.85;;;21.45;;
20298;SDS011;10308;42.688;23.256;2024-03-02T04:58:44;24.52;;;21.38;;
20298;SDS011;10308;42.688;23.256;2024-03-02T05:01:11;23.48;;;21.08;;
20298;SDS011;10308;42.688;23.256;2024-03-02T05:03:38;24.10;;;20.83;;
20298;SDS011;10308;42.688;23.256;2024-03-02T05:06:06;23.85;;;21.35;;
20298;SDS011;10308;42.688;23.256;2024-03-02T05:08:33;24.73;;;22.23;;
20298;SDS011;10308;42.688;23.256;2024-03-02T05:11:01;23.88;;;21.42;;
20298;SDS011;10308;42.688;23.256;2024-03-02T05:13:42;24.75;;;22.23;;
20298;SDS011;10308;42.688;23.256;2024-03-02T05:16:13;21.42;;;18.95;;
20298;SDS011;10308;42.688;23.256;2024-03-02T05:18:40;21.98;;;19.48;;
20298;SDS011;10308;42.688;23.256;2024-03-02T05:21:07;22.65;;;19.95;;
20298;SDS011;10308;42.688;23.256;2024-03-02T05:23:33;22.08;;;19.77;;
20298;SDS011;10308;42.688;23.256;2024-03-02T05:26:00;22.08;;;19.70;;
20298;SDS011;10308;42.688;23.256;2024-03-02T05:28:28;22.10;;;19.80;;
20298;SDS011;10308;42.688;23.256;2024-03-02T05:30:55;23.38;;;20.63;;
20298;SDS011;10308;42.688;23.256;2024-03-02T05:33:23;24.65;;;22.10;;
20298;SDS011;10308;42.688;23.256;2024-03-02T05:35:50;24.65;;;22.05;;
20298;SDS011;10308;42.688;23.256;2024-03-02T05:38:18;23.45;;;21.00;;
20298;SDS011;10308;42.688;23.256;2024-03-02T05:40:47;24.48;;;21.98;;
20298;SDS011;10308;42.688;23.256;2024-03-02T05:43:14;24.33;;;21.73;;
20298;SDS011;10308;42.688;23.256;2024-03-02T05:45:41;25.60;;;22.80;;
20298;SDS011;10308;42.688;23.256;2024-03-02T05:48:07;24.02;;;21.58;;
20298;SDS011;10308;42.688;23.256;2024-03-02T05:50:36;24.92;;;22.23;;
20298;SDS011;10308;42.688;23.256;2024-03-02T05:53:06;24.88;;;22.27;;
20298;SDS011;10308;42.688;23.256;2024-03-02T05:55:32;23.92;;;21.42;;
20298;SDS011;10308;42.688;23.256;2024-03-02T05:57:59;23.98;;;21.48;;
20298;SDS011;10308;42.688;23.256;2024-03-02T06:00:43;24.52;;;21.88;;
20298;SDS011;10308;42.688;23.256;2024-03-02T06:03:10;23.70;;;21.20;;
20298;SDS011;10308;42.688;23.256;2024-03-02T06:05:39;24.08;;;21.52;;
20298;SDS011;10308;42.688;23.256;2024-03-02T06:08:06;23.80;;;21.40;;
20298;SDS011;10308;42.688;23.256;2024-03-02T06:10:33;24.35;;;21.77;;
20298;SDS011;10308;42.688;23.256;2024-03-02T06:13:00;24.38;;;21.92;;
20298;SDS011;10308;42.688;23.256;2024-03-02T06:15:28;25.08;;;22.48;;
20298;SDS011;10308;42.688;23.256;2024-03-02T06:17:54;24.52;;;21.92;;
20298;SDS011;10308;42.688;23.256;2024-03-02T06:20:22;24.02;;;21.55;;
20298;SDS011;10308;42.688;23.256;2024-03-02T06:22:53;24.15;;;21.70;;
20298;SDS011;10308;42.688;23.256;2024-03-02T06:25:21;23.60;;;21.10;;
20298;SDS011;10308;42.688;23.256;2024-03-02T06:27:48;23.52;;;21.13;;
20298;SDS011;10308;42.688;23.256;2024-03-02T06:30:15;24.85;;;22.35;;
20298;SDS011;10308;42.688;23.256;2024-03-02T06:32:45;25.08;;;22.48;;
20298;SDS011;10308;42.688;23.256;2024-03-02T06:35:13;24.50;;;22.20;;
20298;SDS011;10308;42.688;23.256;2024-03-02T06:37:41;24.98;;;22.45;;
20298;SDS011;10308;42.688;23.256;2024-03-02T06:40:14;27.20;;;24.40;;
20298;SDS011;10308;42.688;23.256;2024-03-02T06:42:44;32.72;;;29.15;;
20298;SDS011;10308;42.688;23.256;2024-03-02T06:45:12;35.33;;;31.65;;
20298;SDS011;10308;42.688;23.256;2024-03-02T06:47:42;31.08;;;27.95;;
20298;SDS011;10308;42.688;23.256;2024-03-02T06:50:15;35.47;;;31.77;;
20298;SDS011;10308;42.688;23.256;2024-03-02T06:52:42;36.63;;;32.92;;
20298;SDS011;10308;42.688;23.256;2024-03-02T06:55:09;31.52;;;28.25;;
20298;SDS011;10308;42.688;23.256;2024-03-02T06:57:38;30.08;;;26.98;;
20298;SDS011;10308;42.688;23.256;2024-03-02T07:00:06;31.95;;;28.42;;
20298;SDS011;10308;42.688;23.256;2024-03-02T07:02:37;29.85;;;26.88;;
20298;SDS011;10308;42.688;23.256;2024-03-02T07:05:06;29.75;;;24.83;;
20298;SDS011;10308;42.688;23.256;2024-03-02T07:07:37;25.65;;;22.90;;
20298;SDS011;10308;42.688;23.256;2024-03-02T07:10:08;27.63;;;23.27;;
20298;SDS011;10308;42.688;23.256;2024-03-02T07:12:37;25.48;;;22.25;;
20298;SDS011;10308;42.688;23.256;2024-03-02T07:15:04;23.48;;;19.83;;
20298;SDS011;10308;42.688;23.256;2024-03-02T07:17:50;23.60;;;20.65;;
20298;SDS011;10308;42.688;23.256;2024-03-02T07:20:17;25.02;;;19.58;;
20298;SDS011;10308;42.688;23.256;2024-03-02T07:22:44;25.23;;;20.33;;
20298;SDS011;10308;42.688;23.256;2024-03-02T07:25:11;25.15;;;21.73;;
20298;SDS011;10308;42.688;23.256;2024-03-02T07:27:39;25.20;;;22.60;;
20298;SDS011;10308;42.688;23.256;2024-03-02T07:30:07;22.98;;;20.50;;
20298;SDS011;10308;42.688;23.256;2024-03-02T07:32:36;21.63;;;19.33;;
20298;SDS011;10308;42.688;23.256;2024-03-02T07:35:03;21.25;;;19.13;;
20298;SDS011;10308;42.688;23.256;2024-03-02T07:37:33;21.45;;;18.38;;
20298;SDS011;10308;42.688;23.256;2024-03-02T07:40:00;20.27;;;18.13;;
20298;SDS011;10308;42.688;23.256;2024-03-02T07:42:28;20.48;;;17.15;;
20298;SDS011;10308;42.688;23.256;2024-03-02T07:44:56;20.35;;;18.15;;
20298;SDS011;10308;42.688;23.256;2024-03-02T07:47:27;21.10;;;18.90;;
20298;SDS011;10308;42.688;23.256;2024-03-02T07:49:58;21.77;;;19.15;;
20298;SDS011;10308;42.688;23.256;2024-03-02T07:52:25;21.75;;;19.23;;
20298;SDS011;10308;42.688;23.256;2024-03-02T07:54:52;23.55;;;21.05;;
20298;SDS011;10308;42.688;23.256;2024-03-02T07:57:20;24.27;;;21.77;;
20298;SDS011;10308;42.688;23.256;2024-03-02T07:59:47;23.58;;;19.88;;
20298;SDS011;10308;42.688;23.256;2024-03-02T08:02:16;22.38;;;20.05;;
20298;SDS011;10308;42.688;23.256;2024-03-02T08:04:43;21.60;;;19.27;;
20298;SDS011;10308;42.688;23.256;2024-03-02T08:07:11;23.80;;;21.17;;
20298;SDS011;10308;42.688;23.256;2024-03-02T08:09:39;28.00;;;24.77;;
20298;SDS011;10308;42.688;23.256;2024-03-02T08:12:06;34.20;;;29.30;;
20298;SDS011;10308;42.688;23.256;2024-03-02T08:14:34;34.03;;;29.00;;
20298;SDS011;10308;42.688;23.256;2024-03-02T08:17:01;30.52;;;27.33;;
20298;SDS011;10308;42.688;23.256;2024-03-02T08:19:29;27.85;;;24.80;;
20298;SDS011;10308;42.688;23.256;2024-03-02T08:21:56;24.75;;;21.48;;
20298;SDS011;10308;42.688;23.256;2024-03-02T08:24:25;23.17;;;20.75;;
20298;SDS011;10308;42.688;23.256;2024-03-02T08:26:52;21.63;;;18.85;;
20298;SDS011;10308;42.688;23.256;2024-03-02T08:29:19;21.38;;;19.02;;
20298;SDS011;10308;42.688;23.256;2024-03-02T08:31:46;21.45;;;19.15;;
20298;SDS011;10308;42.688;23.256;2024-03-02T08:34:14;21.50;;;18.95;;
20298;SDS011;10308;42.688;23.256;2024-03-02T08:36:42;21.95;;;19.48;;
20298;SDS011;10308;42.688;23.256;2024-03-02T08:39:09;21.35;;;18.85;;
20298;SDS011;10308;42.688;23.256;2024-03-02T08:41:40;21.27;;;18.38;;
20298;SDS011;10308;42.688;23.256;2024-03-02T08:44:08;21.17;;;18.77;;
20298;SDS011;10308;42.688;23.256;2024-03-02T08:46:35;20.95;;;18.38;;
20298;SDS011;10308;42.688;23.256;2024-03-02T08:49:02;21.50;;;19.20;;
20298;SDS011;10308;42.688;23.256;2024-03-02T08:51:29;21.50;;;19.20;;
20298;SDS011;10308;42.688;23.256;2024-03-02T08:53:58;20.70;;;18.48;;
20298;SDS011;10308;42.688;23.256;2024-03-02T08:56:25;21.13;;;18.45;;
20298;SDS011;10308;42.688;23.256;2024-03-02T08:58:52;20.10;;;17.48;;
20298;SDS011;10308;42.688;23.256;2024-03-02T09:01:20;20.60;;;18.40;;
20298;SDS011;10308;42.688;23.256;2024-03-02T09:03:47;21.58;;;18.63;;
20298;SDS011;10308;42.688;23.256;2024-03-02T09:06:14;21.67;;;18.50;;
20298;SDS011;10308;42.688;23.256;2024-03-02T09:08:42;20.35;;;17.65;;
20298;SDS011;10308;42.688;23.256;2024-03-02T09:11:10;20.50;;;17.65;;
20298;SDS011;10308;42.688;23.256;2024-03-02T09:13:38;20.42;;;18.15;;
20298;SDS011;10308;42.688;23.256;2024-03-02T09:16:05;20.23;;;18.08;;
20298;SDS011;10308;42.688;23.256;2024-03-02T09:18:37;19.60;;;17.55;;
20298;SDS011;10308;42.688;23.256;2024-03-02T09:21:04;18.63;;;16.67;;
20298;SDS011;10308;42.688;23.256;2024-03-02T09:23:32;21.42;;;18.25;;
20298;SDS011;10308;42.688;23.256;2024-03-02T09:25:59;19.95;;;17.85;;
20298;SDS011;10308;42.688;23.256;2024-03-02T09:28:30;19.55;;;17.45;;
20298;SDS011;10308;42.688;23.256;2024-03-02T09:30:57;20.25;;;18.05;;
20298;SDS011;10308;42.688;23.256;2024-03-02T09:33:24;19.75;;;17.65;;
20298;SDS011;10308;42.688;23.256;2024-03-02T09:35:52;20.30;;;18.02;;
20298;SDS011;10308;42.688;23.256;2024-03-02T09:38:19;18.92;;;16.92;;
20298;SDS011;10308;42.688;23.256;2024-03-02T09:40:46;19.38;;;17.33;;
20298;SDS011;10308;42.688;23.256;2024-03-02T09:43:13;18.92;;;16.92;;
20298;SDS011;10308;42.688;23.256;2024-03-02T09:45:42;19.40;;;17.40;;
20298;SDS011;10308;42.688;23.256;2024-03-02T09:48:09;19.83;;;17.73;;
20298;SDS011;10308;42.688;23.256;2024-03-02T09:50:38;19.98;;;17.88;;
20298;SDS011;10308;42.688;23.256;2024-03-02T09:53:06;19.17;;;17.17;;
20298;SDS011;10308;42.688;23.256;2024-03-02T09:55:34;20.10;;;17.73;;
20298;SDS011;10308;42.688;23.256;2024-03-02T09:58:05;20.52;;;18.33;;
20298;SDS011;10308;42.688;23.256;2024-03-02T10:00:32;20.08;;;17.98;;
20298;SDS011;10308;42.688;23.256;2024-03-02T10:03:00;20.42;;;18.33;;
20298;SDS011;10308;42.688;23.256;2024-03-02T10:05:27;20.65;;;18.45;;
20298;SDS011;10308;42.688;23.256;2024-03-02T10:08:01;20.35;;;18.15;;
20298;SDS011;10308;42.688;23.256;2024-03-02T10:10:34;22.77;;;20.58;;
20298;SDS011;10308;42.688;23.256;2024-03-02T10:13:05;21.17;;;19.10;;
20298;SDS011;10308;42.688;23.256;2024-03-02T10:15:35;22.25;;;19.95;;
20298;SDS011;10308;42.688;23.256;2024-03-02T10:18:07;21.65;;;19.35;;
20298;SDS011;10308;42.688;23.256;2024-03-02T10:20:35;21.48;;;19.10;;
20298;SDS011;10308;42.688;23.256;2024-03-02T10:23:13;22.92;;;20.42;;
20298;SDS011;10308;42.688;23.256;2024-03-02T10:25:41;22.05;;;19.70;;
20298;SDS011;10308;42.688;23.256;2024-03-02T10:28:09;22.27;;;19.90;;
20298;SDS011;10308;42.688;23.256;2024-03-02T10:30:38;22.77;;;20.38;;
20298;SDS011;10308;42.688;23.256;2024-03-02T10:33:07;23.10;;;19.45;;
20298;SDS011;10308;42.688;23.256;2024-03-02T10:35:34;22.27;;;19.38;;
20298;SDS011;10308;42.688;23.256;2024-03-02T10:38:04;22.77;;;20.27;;
20298;SDS011;10308;42.688;23.256;2024-03-02T10:40:32;23.00;;;20.50;;
20298;SDS011;10308;42.688;23.256;2024-03-02T10:42:59;23.00;;;20.60;;
20298;SDS011;10308;42.688;23.256;2024-03-02T10:45:28;24.00;;;20.45;;
20298;SDS011;10308;42.688;23.256;2024-03-02T10:47:56;22.30;;;20.02;;
20298;SDS011;10308;42.688;23.256;2024-03-02T10:50:25;22.02;;;19.50;;
20298;SDS011;10308;42.688;23.256;2024-03-02T10:52:52;25.08;;;22.38;;
20298;SDS011;10308;42.688;23.256;2024-03-02T10:55:19;26.70;;;23.15;;
20298;SDS011;10308;42.688;23.256;2024-03-02T10:57:49;26.92;;;23.75;;
20298;SDS011;10308;42.688;23.256;2024-03-02T11:00:19;27.75;;;24.77;;
20298;SDS011;10308;42.688;23.256;2024-03-02T11:02:50;26.08;;;23.27;;
20298;SDS011;10308;42.688;23.256;2024-03-02T11:05:21;26.67;;;22.63;;
20298;SDS011;10308;42.688;23.256;2024-03-02T11:07:57;30.50;;;26.50;;
20298;SDS011;10308;42.688;23.256;2024-03-02T11:10:29;31.27;;;27.30;;
20298;SDS011;10308;42.688;23.256;2024-03-02T11:13:05;30.08;;;26.88;;
20298;SDS011;10308;42.688;23.256;2024-03-02T11:15:35;28.30;;;24.67;;
20298;SDS011;10308;42.688;23.256;2024-03-02T11:18:03;29.20;;;25.15;;
20298;SDS011;10308;42.688;23.256;2024-03-02T11:20:40;28.70;;;23.58;;
20298;SDS011;10308;42.688;23.256;2024-03-02T11:23:09;27.98;;;25.00;;
20298;SDS011;10308;42.688;23.256;2024-03-02T11:25:38;26.92;;;24.13;;
20298;SDS011;10308;42.688;23.256;2024-03-02T11:28:08;29.77;;;26.27;;
20298;SDS011;10308;42.688;23.256;2024-03-02T11:33:25;31.15;;;27.67;;
20298;SDS011;10308;42.688;23.256;2024-03-02T11:35:58;32.58;;;28.02;;
20298;SDS011;10308;42.688;23.256;2024-03-02T11:38:30;27.70;;;24.67;;
20298;SDS011;10308;42.688;23.256;2024-03-02T11:40:59;26.55;;;23.65;;
20298;SDS011;10308;42.688;23.256;2024-03-02T11:43:27;25.67;;;22.88;;
20298;SDS011;10308;42.688;23.256;2024-03-02T11:45:58;27.33;;;24.27;;
20298;SDS011;10308;42.688;23.256;2024-03-02T11:48:25;27.92;;;24.92;;
20298;SDS011;10308;42.688;23.256;2024-03-02T11:50:53;32.15;;;27.55;;
20298;SDS011;10308;42.688;23.256;2024-03-02T11:53:22;29.92;;;26.75;;
20298;SDS011;10308;42.688;23.256;2024-03-02T11:55:52;26.67;;;23.98;;
20298;SDS011;10308;42.688;23.256;2024-03-02T11:58:22;25.90;;;23.10;;
20298;SDS011;10308;42.688;23.256;2024-03-02T12:00:50;22.95;;;20.58;;
20298;SDS011;10308;42.688;23.256;2024-03-02T12:03:18;24.00;;;20.75;;
20298;SDS011;10308;42.688;23.256;2024-03-02T12:05:49;22.23;;;19.90;;
20298;SDS011;10308;42.688;23.256;2024-03-02T12:08:16;20.85;;;18.67;;
20298;SDS011;10308;42.688;23.256;2024-03-02T12:10:44;23.10;;;20.63;;
20298;SDS011;10308;42.688;23.256;2024-03-02T12:13:22;24.20;;;21.60;;
20298;SDS011;10308;42.688;23.256;2024-03-02T12:15:52;29.38;;;26.38;;
20298;SDS011;10308;42.688;23.256;2024-03-02T12:18:20;44.45;;;40.05;;
20298;SDS011;10308;42.688;23.256;2024-03-02T12:20:48;45.40;;;41.20;;
20298;SDS011;10308;42.688;23.256;2024-03-02T12:23:17;39.60;;;35.85;;
20298;SDS011;10308;42.688;23.256;2024-03-02T12:25:46;32.38;;;29.20;;
20298;SDS011;10308;42.688;23.256;2024-03-02T12:28:13;30.08;;;26.80;;
20298;SDS011;10308;42.688;23.256;2024-03-02T12:30:40;26.27;;;23.45;;
20298;SDS011;10308;42.688;23.256;2024-03-02T12:33:07;21.70;;;19.40;;
20298;SDS011;10308;42.688;23.256;2024-03-02T12:35:35;21.30;;;18.77;;
20298;SDS011;10308;42.688;23.256;2024-03-02T12:38:03;19.58;;;17.52;;
20298;SDS011;10308;42.688;23.256;2024-03-02T12:40:31;23.17;;;20.77;;
20298;SDS011;10308;42.688;23.256;2024-03-02T12:42:59;21.65;;;19.35;;
20298;SDS011;10308;42.688;23.256;2024-03-02T12:45:26;21.48;;;19.20;;
20298;SDS011;10308;42.688;23.256;2024-03-02T12:47:53;22.00;;;19.73;;
20298;SDS011;10308;42.688;23.256;2024-03-02T12:50:20;22.50;;;20.20;;
20298;SDS011;10308;42.688;23.256;2024-03-02T12:52:50;22.02;;;19.63;;
20298;SDS011;10308;42.688;23.256;2024-03-02T12:55:19;21.25;;;19.13;;
20298;SDS011;10308;42.688;23.256;2024-03-02T12:57:49;21.40;;;18.95;;
20298;SDS011;10308;42.688;23.256;2024-03-02T13:00:19;20.10;;;17.98;;
20298;SDS011;10308;42.688;23.256;2024-03-02T13:02:47;21.67;;;19.48;;
20298;SDS011;10308;42.688;23.256;2024-03-02T13:05:15;24.77;;;22.15;;
20298;SDS011;10308;42.688;23.256;2024-03-02T13:07:42;21.25;;;19.13;;
20298;SDS011;10308;42.688;23.256;2024-03-02T13:10:12;22.45;;;20.15;;
20298;SDS011;10308;42.688;23.256;2024-03-02T13:12:39;22.90;;;19.60;;
20298;SDS011;10308;42.688;23.256;2024-03-02T13:15:06;22.75;;;20.35;;
20298;SDS011;10308;42.688;23.256;2024-03-02T13:17:37;21.77;;;19.58;;
20298;SDS011;10308;42.688;23.256;2024-03-02T13:20:05;27.33;;;24.58;;
20298;SDS011;10308;42.688;23.256;2024-03-02T13:22:35;26.17;;;23.48;;
20298;SDS011;10308;42.688;23.256;2024-03-02T13:25:03;26.08;;;23.42;;
20298;SDS011;10308;42.688;23.256;2024-03-02T13:27:30;22.85;;;20.55;;
20298;SDS011;10308;42.688;23.256;2024-03-02T13:30:01;23.40;;;21.08;;
20298;SDS011;10308;42.688;23.256;2024-03-02T13:32:29;24.38;;;21.88;;
20298;SDS011;10308;42.688;23.256;2024-03-02T13:34:57;24.15;;;21.67;;
20298;SDS011;10308;42.688;23.256;2024-03-02T13:37:24;23.52;;;21.02;;
20298;SDS011;10308;42.688;23.256;2024-03-02T13:39:51;21.33;;;19.13;;
20298;SDS011;10308;42.688;23.256;2024-03-02T13:42:19;23.30;;;19.80;;
20298;SDS011;10308;42.688;23.256;2024-03-02T13:44:46;24.38;;;21.88;;
20298;SDS011;10308;42.688;23.256;2024-03-02T13:47:16;25.67;;;22.98;;
20298;SDS011;10308;42.688;23.256;2024-03-02T13:49:43;25.85;;;23.15;;
20298;SDS011;10308;42.688;23.256;2024-03-02T13:52:14;33.05;;;29.45;;
20298;SDS011;10308;42.688;23.256;2024-03-02T13:54:42;33.75;;;30.35;;
20298;SDS011;10308;42.688;23.256;2024-03-02T13:57:10;33.08;;;29.60;;
20298;SDS011;10308;42.688;23.256;2024-03-02T13:59:38;31.48;;;27.65;;
20298;SDS011;10308;42.688;23.256;2024-03-02T14:02:07;34.10;;;30.58;;
20298;SDS011;10308;42.688;23.256;2024-03-02T14:04:34;30.90;;;27.60;;
20298;SDS011;10308;42.688;23.256;2024-03-02T14:07:02;27.65;;;24.75;;
20298;SDS011;10308;42.688;23.256;2024-03-02T14:09:33;27.00;;;24.25;;
20298;SDS011;10308;42.688;23.256;2024-03-02T14:12:01;30.73;;;27.58;;
20298;SDS011;10308;42.688;23.256;2024-03-02T14:14:29;30.90;;;27.70;;
20298;SDS011;10308;42.688;23.256;2024-03-02T14:16:57;30.42;;;27.23;;
20298;SDS011;10308;42.688;23.256;2024-03-02T14:19:25;29.52;;;25.63;;
20298;SDS011;10308;42.688;23.256;2024-03-02T14:21:53;30.00;;;25.67;;